Time;durP1;ratioP1;P1;durP2;ratioP2;P2;SDS_P1;SDS_P2;PMS_P1;PMS_P2;Temp;Humidity;BMP_temperature;BMP_pressure;BME280_temperature;BME280_humidity;BME280_pressure;Samples;Min_cycle;Max_cycle;Signal;HPM_P1;HPM_P2
2022/02/20 00:00:15;;;;;;;1.83;1.60;;;;;;;;;;5065110;28;24422;-55
2022/02/20 00:02:40;;;;;;;4.53;1.40;;;;;;;;;;5068326;28;24426;-56
2022/02/20 00:05:06;;;;;;;3.03;1.40;;;;;;;;;;5066345;28;24422;-55
2022/02/20 00:07:31;;;;;;;2.70;1.40;;;;;;;;;;5066445;28;25051;-55
2022/02/20 00:09:56;;;;;;;3.63;1.20;;;;;;;;;;5066272;28;24511;-55
2022/02/20 00:12:21;;;;;;;2.55;1.40;;;;;;;;;;5066457;28;24410;-55
2022/02/20 00:14:46;;;;;;;1.45;1.10;;;;;;;;;;5066425;28;25212;-56
2022/02/20 00:17:11;;;;;;;2.88;1.20;;;;;;;;;;5063631;28;24441;-56
2022/02/20 00:19:36;;;;;;;2.30;1.37;;;;;;;;;;5077026;28;24444;-56
2022/02/20 00:22:02;;;;;;;2.33;1.02;;;;;;;;;;5065345;28;24437;-55
2022/02/20 00:24:27;;;;;;;1.80;1.27;;;;;;;;;;5061938;28;24423;-55
2022/02/20 00:26:52;;;;;;;2.88;1.33;;;;;;;;;;5064531;28;24837;-55
2022/02/20 00:29:17;;;;;;;2.30;1.23;;;;;;;;;;5066323;28;25030;-55
2022/02/20 00:31:42;;;;;;;3.50;1.35;;;;;;;;;;5067525;28;24490;-55
2022/02/20 00:34:08;;;;;;;2.60;1.20;;;;;;;;;;5063345;28;24451;-56
2022/02/20 00:36:33;;;;;;;3.42;1.27;;;;;;;;;;5065602;28;24484;-55
2022/02/20 00:38:58;;;;;;;3.15;1.20;;;;;;;;;;5065511;28;24437;-56
2022/02/20 00:41:23;;;;;;;1.90;1.20;;;;;;;;;;5066376;28;24789;-55
2022/02/20 00:43:48;;;;;;;2.00;1.20;;;;;;;;;;5064996;28;24441;-55
2022/02/20 00:46:13;;;;;;;1.27;1.17;;;;;;;;;;5064931;28;24470;-55
2022/02/20 00:48:39;;;;;;;4.10;1.40;;;;;;;;;;5065745;28;24443;-55
2022/02/20 00:51:04;;;;;;;2.92;1.50;;;;;;;;;;5065620;28;24580;-55
2022/02/20 00:53:30;;;;;;;2.40;1.20;;;;;;;;;;5063574;28;24530;-56
2022/02/20 00:55:55;;;;;;;3.42;1.80;;;;;;;;;;5063697;28;24488;-56
2022/02/20 00:58:20;;;;;;;3.30;1.70;;;;;;;;;;5062878;28;25038;-56
2022/02/20 01:00:45;;;;;;;2.72;1.40;;;;;;;;;;5064805;28;25097;-55
2022/02/20 01:03:11;;;;;;;2.03;1.60;;;;;;;;;;5062319;28;24988;-56
2022/02/20 01:05:36;;;;;;;3.33;1.60;;;;;;;;;;5064065;28;24422;-55
2022/02/20 01:08:01;;;;;;;2.03;1.37;;;;;;;;;;5062876;28;24431;-55
2022/02/20 01:10:26;;;;;;;4.17;1.57;;;;;;;;;;5065063;28;24992;-55
2022/02/20 01:12:51;;;;;;;2.23;1.40;;;;;;;;;;5066504;28;24984;-55
2022/02/20 01:15:18;;;;;;;1.95;1.30;;;;;;;;;;5066673;28;24467;-55
2022/02/20 01:17:43;;;;;;;3.60;1.67;;;;;;;;;;5065587;28;24472;-55
2022/02/20 01:20:10;;;;;;;2.37;1.50;;;;;;;;;;5065868;28;24419;-56
2022/02/20 01:22:36;;;;;;;2.63;1.50;;;;;;;;;;5065567;28;24804;-54
2022/02/20 01:25:01;;;;;;;2.70;1.50;;;;;;;;;;5066439;28;25103;-54
2022/02/20 01:27:26;;;;;;;2.23;1.20;;;;;;;;;;5065326;28;24476;-55
2022/02/20 01:29:51;;;;;;;2.55;1.60;;;;;;;;;;5066446;28;24430;-56
2022/02/20 01:32:16;;;;;;;2.40;1.60;;;;;;;;;;5066019;28;25004;-55
2022/02/20 01:34:42;;;;;;;2.33;1.30;;;;;;;;;;5066030;28;24836;-56
2022/02/20 01:37:07;;;;;;;4.30;1.80;;;;;;;;;;5066791;28;24409;-55
2022/02/20 01:39:32;;;;;;;2.13;1.60;;;;;;;;;;5065925;28;24472;-55
2022/02/20 01:41:57;;;;;;;1.90;1.30;;;;;;;;;;5066501;28;24790;-55
2022/02/20 01:44:22;;;;;;;1.90;1.20;;;;;;;;;;5066103;28;24941;-55
2022/02/20 01:46:49;;;;;;;2.07;1.53;;;;;;;;;;5066209;28;25306;-56
2022/02/20 01:49:15;;;;;;;2.20;1.30;;;;;;;;;;5066439;28;24458;-55
2022/02/20 01:51:40;;;;;;;2.67;1.23;;;;;;;;;;5066010;28;24461;-55
2022/02/20 01:54:05;;;;;;;2.50;1.40;;;;;;;;;;5066447;28;24422;-56
2022/02/20 01:56:30;;;;;;;2.00;1.20;;;;;;;;;;5066691;28;25032;-56
2022/02/20 01:58:55;;;;;;;2.50;1.60;;;;;;;;;;5066380;28;24521;-56
2022/02/20 02:01:21;;;;;;;3.20;1.30;;;;;;;;;;5065338;28;25003;-56
2022/02/20 02:03:46;;;;;;;2.40;1.30;;;;;;;;;;5065760;28;24503;-56
2022/02/20 02:06:11;;;;;;;3.17;1.50;;;;;;;;;;5066183;28;24489;-55
2022/02/20 02:08:36;;;;;;;1.90;1.50;;;;;;;;;;5066088;28;24407;-55
2022/02/20 02:11:02;;;;;;;3.37;1.53;;;;;;;;;;5063286;28;24476;-56
2022/02/20 02:13:27;;;;;;;1.45;1.35;;;;;;;;;;5064113;28;24525;-55
2022/02/20 02:15:53;;;;;;;2.40;1.20;;;;;;;;;;5065421;28;24414;-55
2022/02/20 02:18:20;;;;;;;2.10;1.20;;;;;;;;;;5065787;28;24418;-56
2022/02/20 02:20:46;;;;;;;2.20;1.40;;;;;;;;;;5065125;28;25007;-55
2022/02/20 02:23:13;;;;;;;3.57;1.40;;;;;;;;;;5065599;28;24457;-55
2022/02/20 02:25:38;;;;;;;2.20;1.30;;;;;;;;;;5061822;28;24423;-55
2022/02/20 02:28:04;;;;;;;2.30;1.40;;;;;;;;;;5065890;28;24418;-55
2022/02/20 02:30:29;;;;;;;2.23;1.30;;;;;;;;;;5066092;28;24438;-54
2022/02/20 02:32:54;;;;;;;1.40;1.30;;;;;;;;;;5064085;28;24418;-55
2022/02/20 02:35:20;;;;;;;2.13;1.30;;;;;;;;;;5063650;28;24502;-54
2022/02/20 02:37:45;;;;;;;2.20;1.70;;;;;;;;;;5065725;28;24552;-55
2022/02/20 02:40:11;;;;;;;2.10;1.20;;;;;;;;;;5065959;28;24436;-55
2022/02/20 02:42:36;;;;;;;1.70;1.40;;;;;;;;;;5065323;28;24781;-55
2022/02/20 02:45:01;;;;;;;1.50;1.30;;;;;;;;;;5067103;28;24496;-55
2022/02/20 02:47:26;;;;;;;1.38;1.17;;;;;;;;;;5070462;28;24410;-54
2022/02/20 02:49:51;;;;;;;1.70;1.20;;;;;;;;;;5070091;28;24562;-55
2022/02/20 02:52:16;;;;;;;2.30;1.30;;;;;;;;;;5069630;28;25059;-54
2022/02/20 02:54:42;;;;;;;1.67;1.10;;;;;;;;;;5060425;28;24492;-55
2022/02/20 02:57:07;;;;;;;2.10;1.00;;;;;;;;;;5065567;28;24472;-54
2022/02/20 02:59:32;;;;;;;1.10;1.00;;;;;;;;;;5068876;28;24472;-55
2022/02/20 03:02:03;;;;;;;1.50;0.93;;;;;;;;;;5069752;28;24411;-55
2022/02/20 03:04:29;;;;;;;1.00;0.90;;;;;;;;;;5068692;28;25002;-54
2022/02/20 03:06:54;;;;;;;2.90;1.05;;;;;;;;;;5069245;28;24434;-54
2022/02/20 03:09:19;;;;;;;0.90;0.80;;;;;;;;;;5067248;28;24535;-55
2022/02/20 03:11:44;;;;;;;1.40;1.10;;;;;;;;;;5066529;28;24469;-55
2022/02/20 03:14:10;;;;;;;0.93;0.80;;;;;;;;;;5057877;28;24424;-55
2022/02/20 03:16:35;;;;;;;1.00;1.00;;;;;;;;;;5066035;28;24409;-55
2022/02/20 03:19:00;;;;;;;1.70;1.10;;;;;;;;;;5064212;28;24430;-55
2022/02/20 03:21:25;;;;;;;1.83;1.00;;;;;;;;;;5066939;28;24419;-55
2022/02/20 03:23:51;;;;;;;1.80;1.00;;;;;;;;;;5061376;28;24423;-56
2022/02/20 03:26:16;;;;;;;1.10;1.00;;;;;;;;;;5068453;28;24876;-56
2022/02/20 03:28:41;;;;;;;1.45;1.00;;;;;;;;;;5065190;28;24422;-56
2022/02/20 03:31:06;;;;;;;2.50;1.20;;;;;;;;;;5065400;28;24888;-55
2022/02/20 03:33:32;;;;;;;1.10;1.00;;;;;;;;;;5067558;28;24466;-56
2022/02/20 03:35:57;;;;;;;1.37;1.07;;;;;;;;;;5065903;28;24418;-55
2022/02/20 03:38:22;;;;;;;1.23;1.10;;;;;;;;;;5062731;28;24419;-54
2022/02/20 03:40:47;;;;;;;1.60;1.20;;;;;;;;;;5068870;28;24480;-55
2022/02/20 03:43:12;;;;;;;2.37;1.10;;;;;;;;;;5067489;28;24527;-55
2022/02/20 03:45:38;;;;;;;2.70;1.20;;;;;;;;;;5066356;28;24469;-55
2022/02/20 03:48:03;;;;;;;1.40;1.20;;;;;;;;;;5058960;28;24423;-55
2022/02/20 03:50:28;;;;;;;2.10;1.03;;;;;;;;;;5063260;28;24824;-55
2022/02/20 03:52:54;;;;;;;2.20;1.10;;;;;;;;;;5066881;28;24492;-55
2022/02/20 03:55:19;;;;;;;1.30;1.10;;;;;;;;;;5066441;28;24407;-55
2022/02/20 03:57:45;;;;;;;2.30;1.20;;;;;;;;;;5066228;28;24971;-55
2022/02/20 04:00:11;;;;;;;1.60;1.10;;;;;;;;;;5066284;28;24411;-55
2022/02/20 04:02:37;;;;;;;2.40;1.30;;;;;;;;;;5067493;28;25030;-55
2022/02/20 04:05:03;;;;;;;1.85;1.10;;;;;;;;;;5067967;28;24468;-55
2022/02/20 04:07:29;;;;;;;1.98;1.23;;;;;;;;;;5057701;28;24519;-55
2022/02/20 04:09:54;;;;;;;2.57;1.30;;;;;;;;;;5066091;28;24509;-55
2022/02/20 04:12:19;;;;;;;1.90;1.30;;;;;;;;;;5057318;28;24414;-55
2022/02/20 04:14:44;;;;;;;3.28;1.30;;;;;;;;;;5066484;28;24726;-55
2022/02/20 04:17:09;;;;;;;3.40;1.30;;;;;;;;;;5065942;28;24418;-55
2022/02/20 04:19:34;;;;;;;2.40;1.20;;;;;;;;;;5052935;28;24439;-55
2022/02/20 04:21:59;;;;;;;2.00;1.30;;;;;;;;;;5063234;28;24484;-55
2022/02/20 04:24:25;;;;;;;2.00;1.20;;;;;;;;;;5066307;28;24438;-55
2022/02/20 04:26:50;;;;;;;2.30;1.30;;;;;;;;;;5059837;28;24892;-55
2022/02/20 04:29:15;;;;;;;1.40;1.30;;;;;;;;;;5064818;28;24882;-55
2022/02/20 04:31:41;;;;;;;2.70;1.50;;;;;;;;;;5066219;28;24991;-55
2022/02/20 04:34:06;;;;;;;2.80;1.40;;;;;;;;;;5062593;28;24508;-56
2022/02/20 04:36:37;;;;;;;2.50;1.30;;;;;;;;;;5066167;28;24419;-56
2022/02/20 04:39:03;;;;;;;2.50;1.42;;;;;;;;;;5067853;28;24956;-55
2022/02/20 04:41:29;;;;;;;1.95;1.20;;;;;;;;;;5064608;28;24430;-55
2022/02/20 04:43:54;;;;;;;2.73;1.50;;;;;;;;;;5063370;28;24414;-54
2022/02/20 04:46:19;;;;;;;2.30;1.40;;;;;;;;;;5065312;28;25043;-54
2022/02/20 04:48:44;;;;;;;2.10;1.40;;;;;;;;;;5063629;28;24414;-54
2022/02/20 04:51:09;;;;;;;4.00;1.50;;;;;;;;;;5064884;28;24913;-55
2022/02/20 04:53:35;;;;;;;2.27;1.30;;;;;;;;;;5065692;28;24418;-55
2022/02/20 04:56:00;;;;;;;2.40;1.40;;;;;;;;;;5061949;28;25025;-55
2022/02/20 04:58:25;;;;;;;2.13;1.50;;;;;;;;;;5064706;28;24413;-55
2022/02/20 05:00:50;;;;;;;1.87;1.43;;;;;;;;;;5060031;28;24444;-56
2022/02/20 05:03:15;;;;;;;2.47;1.57;;;;;;;;;;5061766;28;25089;-55
2022/02/20 05:05:41;;;;;;;1.97;1.40;;;;;;;;;;5056890;28;24416;-55
2022/02/20 05:08:06;;;;;;;2.20;1.70;;;;;;;;;;5063610;28;24570;-55
2022/02/20 05:10:31;;;;;;;2.07;1.50;;;;;;;;;;5061092;28;24477;-55
2022/02/20 05:12:56;;;;;;;2.20;1.27;;;;;;;;;;5065669;28;24854;-54
2022/02/20 05:15:21;;;;;;;1.50;1.30;;;;;;;;;;5064948;28;24445;-55
2022/02/20 05:17:46;;;;;;;2.38;1.50;;;;;;;;;;5065579;28;24843;-55
2022/02/20 05:20:12;;;;;;;3.03;1.70;;;;;;;;;;5065288;28;24848;-55
2022/02/20 05:22:37;;;;;;;1.93;1.70;;;;;;;;;;5055973;28;24410;-56
2022/02/20 05:25:02;;;;;;;3.00;1.70;;;;;;;;;;5063291;28;24521;-55
2022/02/20 05:27:27;;;;;;;2.60;1.80;;;;;;;;;;5064555;28;24490;-56
2022/02/20 05:29:53;;;;;;;2.33;1.80;;;;;;;;;;5058694;28;24786;-55
2022/02/20 05:32:23;;;;;;;6.33;1.90;;;;;;;;;;5059559;28;24429;-55
2022/02/20 05:34:49;;;;;;;4.10;1.83;;;;;;;;;;5063121;28;24532;-55
2022/02/20 05:37:14;;;;;;;3.53;2.00;;;;;;;;;;5055078;28;24418;-55
2022/02/20 05:39:39;;;;;;;3.50;2.10;;;;;;;;;;5056752;28;24431;-55
2022/02/20 05:42:04;;;;;;;3.25;2.00;;;;;;;;;;5064729;28;24410;-56
2022/02/20 05:44:30;;;;;;;3.47;2.10;;;;;;;;;;5057989;28;24414;-55
2022/02/20 05:46:55;;;;;;;4.20;2.30;;;;;;;;;;5061131;28;24560;-55
2022/02/20 05:49:20;;;;;;;3.38;1.90;;;;;;;;;;5063528;28;24442;-55
2022/02/20 05:51:45;;;;;;;3.85;2.10;;;;;;;;;;5057168;28;24402;-55
2022/02/20 05:54:10;;;;;;;3.87;2.40;;;;;;;;;;5056125;28;24414;-55
2022/02/20 05:56:35;;;;;;;3.50;2.17;;;;;;;;;;5062814;28;24514;-55
2022/02/20 05:59:00;;;;;;;2.43;2.13;;;;;;;;;;5064259;28;24466;-55
2022/02/20 06:01:26;;;;;;;4.20;2.40;;;;;;;;;;5061387;28;24425;-55
2022/02/20 06:03:51;;;;;;;3.30;2.10;;;;;;;;;;5066167;28;24505;-55
2022/02/20 06:06:16;;;;;;;3.42;2.33;;;;;;;;;;5061853;28;24423;-55
2022/02/20 06:08:41;;;;;;;2.80;1.92;;;;;;;;;;5052785;28;25335;-54
2022/02/20 06:11:07;;;;;;;4.60;2.40;;;;;;;;;;5059291;28;24430;-55
2022/02/20 06:13:32;;;;;;;2.60;2.07;;;;;;;;;;5060467;28;24538;-55
2022/02/20 06:15:57;;;;;;;3.00;1.90;;;;;;;;;;5063387;28;24419;-55
2022/02/20 06:18:22;;;;;;;3.80;2.10;;;;;;;;;;5059786;28;24558;-55
2022/02/20 06:20:47;;;;;;;3.03;2.20;;;;;;;;;;5061115;28;25032;-55
2022/02/20 06:23:12;;;;;;;4.30;2.20;;;;;;;;;;5065202;28;24423;-55
2022/02/20 06:25:37;;;;;;;4.70;2.30;;;;;;;;;;5062353;28;24466;-55
2022/02/20 06:28:03;;;;;;;3.20;2.30;;;;;;;;;;5059521;28;25268;-55
2022/02/20 06:30:28;;;;;;;3.60;2.37;;;;;;;;;;5057801;28;24443;-54
2022/02/20 06:32:53;;;;;;;2.50;2.30;;;;;;;;;;5060878;28;24407;-54
2022/02/20 06:35:18;;;;;;;2.90;2.30;;;;;;;;;;5063211;28;24773;-55
2022/02/20 06:37:43;;;;;;;3.70;2.23;;;;;;;;;;5064260;28;24410;-55
2022/02/20 06:40:09;;;;;;;2.73;2.10;;;;;;;;;;5065614;28;24454;-55
2022/02/20 06:42:34;;;;;;;3.75;2.20;;;;;;;;;;5065180;28;24983;-55
2022/02/20 06:44:59;;;;;;;4.37;2.40;;;;;;;;;;5066009;28;25069;-55
2022/02/20 06:47:24;;;;;;;2.35;2.15;;;;;;;;;;5056601;28;25015;-56
2022/02/20 06:49:49;;;;;;;4.30;2.27;;;;;;;;;;5062347;28;24429;-54
2022/02/20 06:52:15;;;;;;;3.60;2.20;;;;;;;;;;5058124;28;24435;-55
2022/02/20 06:54:40;;;;;;;2.75;2.40;;;;;;;;;;5052785;28;24988;-54
2022/02/20 06:57:05;;;;;;;4.77;2.33;;;;;;;;;;5056463;28;24460;-55
2022/02/20 06:59:30;;;;;;;2.10;1.90;;;;;;;;;;5055740;28;24461;-54
2022/02/20 07:01:55;;;;;;;2.37;1.80;;;;;;;;;;5061727;28;24994;-54
2022/02/20 07:04:20;;;;;;;3.07;2.10;;;;;;;;;;5063111;28;24481;-54
2022/02/20 07:06:46;;;;;;;2.60;2.00;;;;;;;;;;5065500;28;24821;-54
2022/02/20 07:09:11;;;;;;;2.70;1.70;;;;;;;;;;5061861;28;24420;-55
2022/02/20 07:11:37;;;;;;;1.70;1.40;;;;;;;;;;5055384;28;25022;-55
2022/02/20 07:14:03;;;;;;;2.63;1.50;;;;;;;;;;5063773;28;24415;-55
2022/02/20 07:16:28;;;;;;;3.50;1.88;;;;;;;;;;5065878;28;24499;-54
2022/02/20 07:18:54;;;;;;;3.57;1.90;;;;;;;;;;5055529;28;24430;-54
2022/02/20 07:21:19;;;;;;;2.30;1.70;;;;;;;;;;5065827;28;24418;-54
2022/02/20 07:23:44;;;;;;;4.10;2.10;;;;;;;;;;5059902;28;24628;-55
2022/02/20 07:26:09;;;;;;;2.30;2.10;;;;;;;;;;5061784;28;24537;-55
2022/02/20 07:28:34;;;;;;;2.60;2.40;;;;;;;;;;5060744;28;24415;-54
2022/02/20 07:30:59;;;;;;;3.07;2.10;;;;;;;;;;5060362;28;24430;-54
2022/02/20 07:33:25;;;;;;;2.90;2.30;;;;;;;;;;5071761;28;25114;-55
2022/02/20 07:35:50;;;;;;;2.20;2.00;;;;;;;;;;5076766;28;24413;-55
2022/02/20 07:38:15;;;;;;;2.53;2.10;;;;;;;;;;5066321;28;24456;-55
2022/02/20 07:40:40;;;;;;;2.42;2.20;;;;;;;;;;5070770;28;24881;-55
2022/02/20 07:43:05;;;;;;;5.73;2.40;;;;;;;;;;5062187;28;24407;-56
2022/02/20 07:45:30;;;;;;;4.03;2.40;;;;;;;;;;5066795;28;24536;-55
2022/02/20 07:47:57;;;;;;;3.67;2.30;;;;;;;;;;5067436;28;24419;-55
2022/02/20 07:50:24;;;;;;;5.30;2.77;;;;;;;;;;5068035;28;25025;-56
2022/02/20 07:52:49;;;;;;;4.35;2.50;;;;;;;;;;5062454;28;25212;-55
2022/02/20 07:55:15;;;;;;;3.30;2.60;;;;;;;;;;5069311;28;24464;-55
2022/02/20 07:57:40;;;;;;;2.97;2.70;;;;;;;;;;5069039;28;24422;-54
2022/02/20 08:00:06;;;;;;;4.90;2.40;;;;;;;;;;5068626;28;24797;-55
2022/02/20 08:02:31;;;;;;;3.10;2.60;;;;;;;;;;5069260;28;24789;-55
2022/02/20 08:04:56;;;;;;;2.97;2.40;;;;;;;;;;5068265;28;24505;-56
2022/02/20 08:07:22;;;;;;;2.90;2.40;;;;;;;;;;5069003;28;24442;-56
2022/02/20 08:09:47;;;;;;;3.77;2.30;;;;;;;;;;5068042;28;24438;-56
2022/02/20 08:12:12;;;;;;;3.10;2.57;;;;;;;;;;5067347;28;24510;-56
2022/02/20 08:14:37;;;;;;;4.97;2.90;;;;;;;;;;5068190;28;24418;-56
2022/02/20 08:17:03;;;;;;;3.50;2.57;;;;;;;;;;5066254;28;24436;-56
2022/02/20 08:19:28;;;;;;;2.63;2.43;;;;;;;;;;5050151;28;25182;-57
2022/02/20 08:21:53;;;;;;;4.18;2.80;;;;;;;;;;5053711;28;25060;-56
2022/02/20 08:24:18;;;;;;;3.53;2.53;;;;;;;;;;5058153;28;24422;-56
2022/02/20 08:26:45;;;;;;;3.20;2.58;;;;;;;;;;5068088;28;24406;-56
2022/02/20 08:29:10;;;;;;;3.50;2.70;;;;;;;;;;5065607;28;24555;-56
2022/02/20 08:31:35;;;;;;;2.73;2.43;;;;;;;;;;5066782;28;24423;-56
2022/02/20 08:34:01;;;;;;;3.33;2.88;;;;;;;;;;5056073;28;24777;-55
2022/02/20 08:36:26;;;;;;;3.47;2.50;;;;;;;;;;5064335;28;24446;-56
2022/02/20 08:38:51;;;;;;;3.17;2.73;;;;;;;;;;5056569;28;24480;-56
2022/02/20 08:41:16;;;;;;;2.70;2.50;;;;;;;;;;5064208;28;24426;-56
2022/02/20 08:43:41;;;;;;;2.88;2.30;;;;;;;;;;5055857;28;24421;-57
2022/02/20 08:46:06;;;;;;;3.07;2.57;;;;;;;;;;5068846;28;24429;-56
2022/02/20 08:48:36;;;;;;;3.03;2.60;;;;;;;;;;5052800;28;24430;-56
2022/02/20 08:51:01;;;;;;;3.20;2.50;;;;;;;;;;5048271;28;24837;-56
2022/02/20 08:53:26;;;;;;;3.10;2.60;;;;;;;;;;5062601;28;24514;-56
2022/02/20 08:55:51;;;;;;;4.97;2.80;;;;;;;;;;5068256;28;24450;-56
2022/02/20 08:58:16;;;;;;;3.63;2.50;;;;;;;;;;5068006;28;24386;-56
2022/02/20 09:00:42;;;;;;;3.60;2.50;;;;;;;;;;5068115;28;24425;-56
2022/02/20 09:03:07;;;;;;;3.97;2.50;;;;;;;;;;5068134;28;24415;-56
2022/02/20 09:05:32;;;;;;;2.30;2.10;;;;;;;;;;5067458;28;24486;-56
2022/02/20 09:07:58;;;;;;;4.18;2.40;;;;;;;;;;5068614;28;24397;-56
2022/02/20 09:10:23;;;;;;;2.43;2.23;;;;;;;;;;5067860;28;24521;-56
2022/02/20 09:12:48;;;;;;;4.87;2.70;;;;;;;;;;5067569;28;25462;-56
2022/02/20 09:15:14;;;;;;;3.63;2.90;;;;;;;;;;5067967;28;25288;-56
2022/02/20 09:17:40;;;;;;;3.30;2.70;;;;;;;;;;5067519;28;25069;-56
2022/02/20 09:20:06;;;;;;;3.67;2.50;;;;;;;;;;5067767;28;24411;-56
2022/02/20 09:22:31;;;;;;;4.25;2.72;;;;;;;;;;5067542;28;24963;-56
2022/02/20 09:24:57;;;;;;;2.93;2.40;;;;;;;;;;5067439;28;24438;-56
2022/02/20 09:27:22;;;;;;;2.97;2.60;;;;;;;;;;5067695;28;24443;-56
2022/02/20 09:29:47;;;;;;;4.10;2.73;;;;;;;;;;5065865;28;24418;-56
2022/02/20 09:32:12;;;;;;;3.60;2.75;;;;;;;;;;5067163;28;24401;-56
2022/02/20 09:34:37;;;;;;;3.80;2.60;;;;;;;;;;5066130;28;24426;-57
2022/02/20 09:37:03;;;;;;;3.57;2.77;;;;;;;;;;5067116;28;24402;-56
2022/02/20 09:39:28;;;;;;;3.10;2.43;;;;;;;;;;5067281;28;24395;-56
2022/02/20 09:41:55;;;;;;;3.40;2.73;;;;;;;;;;5056246;28;24411;-55
2022/02/20 09:44:20;;;;;;;2.63;2.42;;;;;;;;;;5048439;28;24758;-56
2022/02/20 09:46:46;;;;;;;4.80;2.50;;;;;;;;;;5066746;28;24435;-55
2022/02/20 09:49:11;;;;;;;3.77;2.20;;;;;;;;;;5067169;28;24492;-56
2022/02/20 09:51:36;;;;;;;2.93;2.30;;;;;;;;;;5067110;28;24457;-55
2022/02/20 09:54:02;;;;;;;4.18;2.70;;;;;;;;;;5066877;28;24476;-55
2022/02/20 09:56:27;;;;;;;2.90;2.50;;;;;;;;;;5066827;28;24449;-55
2022/02/20 09:58:53;;;;;;;3.13;2.10;;;;;;;;;;5067320;28;24386;-56
2022/02/20 10:01:18;;;;;;;3.87;2.50;;;;;;;;;;5067307;28;24796;-55
2022/02/20 10:03:44;;;;;;;2.65;2.00;;;;;;;;;;5066724;28;24402;-56
2022/02/20 10:06:11;;;;;;;3.05;2.20;;;;;;;;;;5065818;28;24847;-56
2022/02/20 10:08:37;;;;;;;2.03;1.75;;;;;;;;;;5066886;28;24921;-56
2022/02/20 10:11:17;;;;;;;2.70;2.10;;;;;;;;;;5066685;28;24462;-55
2022/02/20 10:13:42;;;;;;;3.00;2.03;;;;;;;;;;5066287;28;24383;-55
2022/02/20 10:16:18;;;;;;;4.82;2.10;;;;;;;;;;5066164;28;24448;-55
2022/02/20 10:18:44;;;;;;;5.05;2.28;;;;;;;;;;5066834;28;24390;-55
2022/02/20 10:21:10;;;;;;;2.70;1.80;;;;;;;;;;5066303;28;24411;-55
2022/02/20 10:23:40;;;;;;;3.60;1.90;;;;;;;;;;5066523;28;24758;-56
2022/02/20 10:26:09;;;;;;;4.85;2.00;;;;;;;;;;5066921;28;24410;-55
2022/02/20 10:28:35;;;;;;;2.90;1.85;;;;;;;;;;5066025;28;24458;-55
2022/02/20 10:31:00;;;;;;;3.15;1.90;;;;;;;;;;5066049;28;24461;-55
2022/02/20 10:33:26;;;;;;;3.05;1.77;;;;;;;;;;5066469;28;24402;-54
2022/02/20 10:35:52;;;;;;;3.50;2.10;;;;;;;;;;5066458;28;24403;-55
2022/02/20 10:38:19;;;;;;;2.92;1.90;;;;;;;;;;5065929;28;24426;-55
2022/02/20 10:40:45;;;;;;;4.53;1.90;;;;;;;;;;5057465;28;24940;-55
2022/02/20 10:43:26;;;;;;;3.10;1.90;;;;;;;;;;5056273;28;24411;-55
2022/02/20 10:46:04;;;;;;;3.92;2.20;;;;;;;;;;5065439;28;24435;-57
2022/02/20 10:48:36;;;;;;;2.33;1.70;;;;;;;;;;5066116;28;25425;-54
2022/02/20 10:51:01;;;;;;;1.73;1.40;;;;;;;;;;5066554;28;24498;-58
2022/02/20 10:53:32;;;;;;;3.50;2.20;;;;;;;;;;5065741;28;24833;-56
2022/02/20 10:56:00;;;;;;;1.73;1.60;;;;;;;;;;5064228;28;24417;-55
2022/02/20 10:58:27;;;;;;;3.15;2.00;;;;;;;;;;5062331;28;24487;-55
2022/02/20 11:00:53;;;;;;;2.90;1.60;;;;;;;;;;5064066;28;24511;-55
2022/02/20 11:03:22;;;;;;;3.08;1.98;;;;;;;;;;5065450;28;25022;-56
2022/02/20 11:05:48;;;;;;;3.70;2.15;;;;;;;;;;5065096;28;25017;-56
2022/02/20 11:08:14;;;;;;;2.50;1.60;;;;;;;;;;5068940;28;24419;-55
2022/02/20 11:10:40;;;;;;;3.47;1.70;;;;;;;;;;5069193;28;24446;-55
2022/02/20 11:13:06;;;;;;;1.92;1.40;;;;;;;;;;5067799;28;24469;-55
2022/02/20 11:15:33;;;;;;;2.45;1.42;;;;;;;;;;5065611;28;24769;-55
2022/02/20 11:18:03;;;;;;;4.82;1.80;;;;;;;;;;5061181;28;24435;-55
2022/02/20 11:20:32;;;;;;;2.90;1.92;;;;;;;;;;5066177;28;24429;-55
2022/02/20 11:22:59;;;;;;;2.80;1.43;;;;;;;;;;5065713;28;24422;-56
2022/02/20 11:25:25;;;;;;;2.00;1.60;;;;;;;;;;5065131;28;24470;-56
2022/02/20 11:27:51;;;;;;;1.67;1.50;;;;;;;;;;5067094;28;24486;-56
2022/02/20 11:30:16;;;;;;;1.90;1.60;;;;;;;;;;5068361;28;24530;-56
2022/02/20 11:32:43;;;;;;;2.60;1.60;;;;;;;;;;5067437;28;24758;-56
2022/02/20 11:35:09;;;;;;;2.73;1.60;;;;;;;;;;5067762;28;24505;-55
2022/02/20 11:37:51;;;;;;;3.00;1.80;;;;;;;;;;5067869;28;24406;-55
2022/02/20 11:40:17;;;;;;;1.65;1.50;;;;;;;;;;5068018;28;24808;-56
2022/02/20 11:43:00;;;;;;;2.90;1.60;;;;;;;;;;5066837;28;25042;-56
2022/02/20 11:45:30;;;;;;;3.33;1.90;;;;;;;;;;5065856;28;24519;-56
2022/02/20 11:48:02;;;;;;;3.53;1.90;;;;;;;;;;5066649;28;24423;-56
2022/02/20 11:50:27;;;;;;;3.10;1.75;;;;;;;;;;5065071;28;24812;-56
2022/02/20 11:52:53;;;;;;;2.60;2.20;;;;;;;;;;5064820;28;24798;-56
2022/02/20 11:55:20;;;;;;;2.73;1.90;;;;;;;;;;5067531;28;24472;-56
2022/02/20 11:57:45;;;;;;;1.95;1.70;;;;;;;;;;5067806;28;24472;-55
2022/02/20 12:00:14;;;;;;;3.47;1.80;;;;;;;;;;5063779;28;24836;-56
2022/02/20 12:03:06;;;;;;;3.38;2.10;;;;;;;;;;5058097;28;24434;-56
2022/02/20 12:05:32;;;;;;;3.63;1.80;;;;;;;;;;5064006;28;24431;-56
2022/02/20 12:07:58;;;;;;;3.40;1.90;;;;;;;;;;5057917;28;24419;-56
2022/02/20 12:10:24;;;;;;;4.63;2.00;;;;;;;;;;5068628;28;24485;-55
2022/02/20 12:12:56;;;;;;;4.18;1.73;;;;;;;;;;5067564;28;24853;-56
2022/02/20 12:15:28;;;;;;;1.90;1.67;;;;;;;;;;5066617;28;24467;-56
2022/02/20 12:18:02;;;;;;;2.10;1.75;;;;;;;;;;5070216;28;24717;-55
2022/02/20 12:21:06;;;;;;;2.22;1.70;;;;;;;;;;5069438;28;24997;-55
2022/02/20 12:23:34;;;;;;;2.30;1.48;;;;;;;;;;5067184;28;24785;-57
2022/02/20 12:26:01;;;;;;;3.40;1.60;;;;;;;;;;5059033;28;24419;-54
2022/02/20 12:28:32;;;;;;;1.65;1.50;;;;;;;;;;5063726;28;24731;-55
2022/02/20 12:30:58;;;;;;;1.50;1.40;;;;;;;;;;5072390;28;24537;-57
2022/02/20 12:33:29;;;;;;;2.17;1.50;;;;;;;;;;5068156;28;25075;-55
2022/02/20 12:35:54;;;;;;;2.38;1.60;;;;;;;;;;5066781;28;24515;-56
2022/02/20 12:38:19;;;;;;;2.63;1.30;;;;;;;;;;5068342;28;24498;-56
2022/02/20 12:40:45;;;;;;;2.53;1.53;;;;;;;;;;5068478;28;24957;-55
2022/02/20 12:43:13;;;;;;;2.42;1.65;;;;;;;;;;5067582;28;24444;-56
2022/02/20 12:45:41;;;;;;;1.60;1.50;;;;;;;;;;5058574;28;24427;-56
2022/02/20 12:48:07;;;;;;;2.20;1.48;;;;;;;;;;5064794;28;24411;-56
2022/02/20 12:50:38;;;;;;;1.77;1.50;;;;;;;;;;5067795;28;24434;-56
2022/02/20 12:53:03;;;;;;;2.90;1.40;;;;;;;;;;5067151;28;24407;-56
2022/02/20 12:55:29;;;;;;;2.20;1.40;;;;;;;;;;5067923;28;25353;-59
2022/02/20 12:57:59;;;;;;;2.20;1.10;;;;;;;;;;5064411;28;25024;-55
2022/02/20 13:00:26;;;;;;;1.98;1.10;;;;;;;;;;5065168;28;24468;-55
2022/02/20 13:02:52;;;;;;;1.40;1.10;;;;;;;;;;5060828;28;24419;-55
2022/02/20 13:05:18;;;;;;;1.40;1.00;;;;;;;;;;5060777;28;24503;-55
2022/02/20 13:07:45;;;;;;;1.20;1.10;;;;;;;;;;5064952;28;24423;-56
2022/02/20 13:10:13;;;;;;;1.83;1.35;;;;;;;;;;5060095;28;24571;-56
2022/02/20 13:12:39;;;;;;;2.60;1.30;;;;;;;;;;5058600;28;24419;-55
2022/02/20 13:15:05;;;;;;;2.03;1.08;;;;;;;;;;5064756;28;24421;-55
2022/02/20 13:17:47;;;;;;;1.02;0.90;;;;;;;;;;5056113;28;24536;-56
2022/02/20 13:20:29;;;;;;;2.10;1.10;;;;;;;;;;5063771;28;24458;-56
2022/02/20 13:22:55;;;;;;;1.20;1.10;;;;;;;;;;5067378;28;24415;-56
2022/02/20 13:25:20;;;;;;;1.37;0.93;;;;;;;;;;5066773;28;24918;-55
2022/02/20 13:27:46;;;;;;;2.40;1.33;;;;;;;;;;5067325;28;24936;-56
2022/02/20 13:30:11;;;;;;;1.27;1.10;;;;;;;;;;5065158;28;25260;-56
2022/02/20 13:32:36;;;;;;;0.70;0.70;;;;;;;;;;5066848;28;24422;-56
2022/02/20 13:35:04;;;;;;;0.93;0.90;;;;;;;;;;5067029;28;24797;-57
2022/02/20 13:37:29;;;;;;;0.80;0.80;;;;;;;;;;5067458;28;25226;-56
2022/02/20 13:39:54;;;;;;;0.70;0.70;;;;;;;;;;5066810;28;24454;-57
2022/02/20 13:42:20;;;;;;;0.90;0.90;;;;;;;;;;5067464;28;24428;-55
2022/02/20 13:44:45;;;;;;;1.00;0.80;;;;;;;;;;5066593;28;24983;-55
2022/02/20 13:47:14;;;;;;;1.40;0.70;;;;;;;;;;5066050;28;24410;-55
2022/02/20 13:49:48;;;;;;;0.90;0.70;;;;;;;;;;5066972;28;24986;-56
2022/02/20 13:52:21;;;;;;;0.60;0.60;;;;;;;;;;5062838;28;24427;-56
2022/02/20 13:54:47;;;;;;;1.20;0.68;;;;;;;;;;5065818;28;24531;-54
2022/02/20 13:57:22;;;;;;;0.90;0.80;;;;;;;;;;5062623;28;25014;-56
2022/02/20 13:59:48;;;;;;;0.65;0.50;;;;;;;;;;5054053;28;24785;-55
2022/02/20 14:02:13;;;;;;;1.20;0.70;;;;;;;;;;5060336;28;24433;-56
2022/02/20 14:04:41;;;;;;;0.88;0.68;;;;;;;;;;5067073;28;24438;-56
2022/02/20 14:07:07;;;;;;;0.70;0.60;;;;;;;;;;5065126;28;24469;-55
2022/02/20 14:09:35;;;;;;;0.60;0.50;;;;;;;;;;5064832;28;24534;-55
2022/02/20 14:12:09;;;;;;;0.60;0.60;;;;;;;;;;5050899;28;24814;-60
2022/02/20 14:14:34;;;;;;;0.60;0.60;;;;;;;;;;5065202;28;24426;-56
2022/02/20 14:16:59;;;;;;;2.50;0.80;;;;;;;;;;5058401;28;24987;-58
2022/02/20 14:19:25;;;;;;;0.50;0.50;;;;;;;;;;5062161;28;24423;-59
2022/02/20 14:21:54;;;;;;;0.80;0.80;;;;;;;;;;5061139;28;24521;-59
2022/02/20 14:24:19;;;;;;;2.50;0.90;;;;;;;;;;5063108;28;24411;-56
2022/02/20 14:26:44;;;;;;;0.80;0.70;;;;;;;;;;5060331;28;24522;-57
2022/02/20 14:29:11;;;;;;;1.23;0.70;;;;;;;;;;5065888;28;24464;-57
2022/02/20 14:31:37;;;;;;;0.70;0.60;;;;;;;;;;5063082;28;24975;-56
2022/02/20 14:34:03;;;;;;;0.60;0.50;;;;;;;;;;5064937;28;24453;-58
2022/02/20 14:36:28;;;;;;;1.17;0.73;;;;;;;;;;5060856;28;24435;-55